sensor_id;sensor_type;location;lat;lon;timestamp;P1;durP1;ratioP1;P2;durP2;ratioP2
7669;SDS011;3877;42.562;27.636;2023-10-13T00:01:07;8.50;;;3.47;;
7669;SDS011;3877;42.562;27.636;2023-10-13T00:03:37;11.90;;;3.47;;
7669;SDS011;3877;42.562;27.636;2023-10-13T00:06:07;8.45;;;3.22;;
7669;SDS011;3877;42.562;27.636;2023-10-13T00:08:34;7.57;;;3.20;;
7669;SDS011;3877;42.562;27.636;2023-10-13T00:11:02;6.95;;;3.28;;
7669;SDS011;3877;42.562;27.636;2023-10-13T00:13:30;8.98;;;2.85;;
7669;SDS011;3877;42.562;27.636;2023-10-13T00:16:06;5.77;;;3.23;;
7669;SDS011;3877;42.562;27.636;2023-10-13T00:18:35;7.75;;;3.20;;
7669;SDS011;3877;42.562;27.636;2023-10-13T00:21:08;9.17;;;2.90;;
7669;SDS011;3877;42.562;27.636;2023-10-13T00:23:39;8.98;;;3.10;;
7669;SDS011;3877;42.562;27.636;2023-10-13T00:26:09;6.97;;;2.80;;
7669;SDS011;3877;42.562;27.636;2023-10-13T00:28:38;6.10;;;2.80;;
7669;SDS011;3877;42.562;27.636;2023-10-13T00:31:12;8.70;;;3.00;;
7669;SDS011;3877;42.562;27.636;2023-10-13T00:33:39;8.98;;;3.00;;
7669;SDS011;3877;42.562;27.636;2023-10-13T00:36:08;15.75;;;3.90;;
7669;SDS011;3877;42.562;27.636;2023-10-13T00:38:42;8.30;;;3.45;;
7669;SDS011;3877;42.562;27.636;2023-10-13T00:41:13;7.40;;;3.40;;
7669;SDS011;3877;42.562;27.636;2023-10-13T00:43:45;9.60;;;3.30;;
7669;SDS011;3877;42.562;27.636;2023-10-13T00:46:11;10.43;;;3.30;;
7669;SDS011;3877;42.562;27.636;2023-10-13T00:48:40;10.10;;;2.90;;
7669;SDS011;3877;42.562;27.636;2023-10-13T00:51:18;9.60;;;3.03;;
7669;SDS011;3877;42.562;27.636;2023-10-13T00:53:57;7.73;;;2.73;;
7669;SDS011;3877;42.562;27.636;2023-10-13T00:56:25;5.70;;;2.83;;
7669;SDS011;3877;42.562;27.636;2023-10-13T00:58:53;6.85;;;2.90;;
7669;SDS011;3877;42.562;27.636;2023-10-13T01:01:22;7.63;;;3.30;;
7669;SDS011;3877;42.562;27.636;2023-10-13T01:03:56;9.77;;;3.40;;
7669;SDS011;3877;42.562;27.636;2023-10-13T01:06:26;10.30;;;4.28;;
7669;SDS011;3877;42.562;27.636;2023-10-13T01:08:56;10.70;;;4.80;;
7669;SDS011;3877;42.562;27.636;2023-10-13T01:11:25;11.43;;;5.00;;
7669;SDS011;3877;42.562;27.636;2023-10-13T01:13:54;11.37;;;4.93;;
7669;SDS011;3877;42.562;27.636;2023-10-13T01:16:22;11.47;;;5.20;;
7669;SDS011;3877;42.562;27.636;2023-10-13T01:18:52;11.53;;;4.77;;
7669;SDS011;3877;42.562;27.636;2023-10-13T01:21:26;13.20;;;6.77;;
7669;SDS011;3877;42.562;27.636;2023-10-13T01:23:54;8.17;;;4.63;;
7669;SDS011;3877;42.562;27.636;2023-10-13T01:26:21;8.27;;;4.90;;
7669;SDS011;3877;42.562;27.636;2023-10-13T01:28:49;9.30;;;5.00;;
7669;SDS011;3877;42.562;27.636;2023-10-13T01:31:16;11.17;;;5.43;;
7669;SDS011;3877;42.562;27.636;2023-10-13T01:33:51;9.07;;;5.23;;
7669;SDS011;3877;42.562;27.636;2023-10-13T01:36:19;10.27;;;5.80;;
7669;SDS011;3877;42.562;27.636;2023-10-13T01:38:45;8.93;;;5.67;;
7669;SDS011;3877;42.562;27.636;2023-10-13T01:41:14;7.43;;;4.63;;
7669;SDS011;3877;42.562;27.636;2023-10-13T01:43:40;12.57;;;5.60;;
7669;SDS011;3877;42.562;27.636;2023-10-13T01:46:07;10.07;;;4.78;;
7669;SDS011;3877;42.562;27.636;2023-10-13T01:48:34;9.73;;;4.17;;
7669;SDS011;3877;42.562;27.636;2023-10-13T01:51:04;10.13;;;4.53;;
7669;SDS011;3877;42.562;27.636;2023-10-13T01:53:34;10.60;;;4.10;;
7669;SDS011;3877;42.562;27.636;2023-10-13T01:56:02;8.60;;;4.00;;
7669;SDS011;3877;42.562;27.636;2023-10-13T01:58:32;5.67;;;3.67;;
7669;SDS011;3877;42.562;27.636;2023-10-13T02:00:59;6.93;;;3.60;;
7669;SDS011;3877;42.562;27.636;2023-10-13T02:03:27;7.20;;;4.03;;
7669;SDS011;3877;42.562;27.636;2023-10-13T02:05:55;8.23;;;4.20;;
7669;SDS011;3877;42.562;27.636;2023-10-13T02:08:23;10.27;;;3.70;;
7669;SDS011;3877;42.562;27.636;2023-10-13T02:10:50;8.80;;;4.00;;
7669;SDS011;3877;42.562;27.636;2023-10-13T02:13:17;10.40;;;3.67;;
7669;SDS011;3877;42.562;27.636;2023-10-13T02:15:45;8.63;;;4.23;;
7669;SDS011;3877;42.562;27.636;2023-10-13T02:18:13;8.10;;;3.87;;
7669;SDS011;3877;42.562;27.636;2023-10-13T02:20:39;12.50;;;4.70;;
7669;SDS011;3877;42.562;27.636;2023-10-13T02:23:11;11.83;;;5.00;;
7669;SDS011;3877;42.562;27.636;2023-10-13T02:25:38;10.97;;;4.60;;
7669;SDS011;3877;42.562;27.636;2023-10-13T02:28:11;8.33;;;4.80;;
7669;SDS011;3877;42.562;27.636;2023-10-13T02:30:39;7.63;;;3.87;;
7669;SDS011;3877;42.562;27.636;2023-10-13T02:33:12;8.47;;;4.10;;
7669;SDS011;3877;42.562;27.636;2023-10-13T02:35:39;7.70;;;3.50;;
7669;SDS011;3877;42.562;27.636;2023-10-13T02:38:15;5.33;;;3.30;;
7669;SDS011;3877;42.562;27.636;2023-10-13T02:40:42;8.27;;;3.67;;
7669;SDS011;3877;42.562;27.636;2023-10-13T02:43:09;6.77;;;3.40;;
7669;SDS011;3877;42.562;27.636;2023-10-13T02:45:35;9.20;;;3.67;;
7669;SDS011;3877;42.562;27.636;2023-10-13T02:48:03;8.33;;;3.70;;
7669;SDS011;3877;42.562;27.636;2023-10-13T02:50:40;8.73;;;3.40;;
7669;SDS011;3877;42.562;27.636;2023-10-13T02:53:11;6.67;;;3.03;;
7669;SDS011;3877;42.562;27.636;2023-10-13T02:55:50;12.87;;;3.50;;
7669;SDS011;3877;42.562;27.636;2023-10-13T02:58:17;7.60;;;3.20;;
7669;SDS011;3877;42.562;27.636;2023-10-13T03:00:43;7.43;;;3.27;;
7669;SDS011;3877;42.562;27.636;2023-10-13T03:03:11;6.70;;;3.37;;
7669;SDS011;3877;42.562;27.636;2023-10-13T03:05:41;4.03;;;2.60;;
7669;SDS011;3877;42.562;27.636;2023-10-13T03:08:08;8.67;;;3.40;;
7669;SDS011;3877;42.562;27.636;2023-10-13T03:10:36;7.53;;;2.93;;
7669;SDS011;3877;42.562;27.636;2023-10-13T03:13:11;7.63;;;3.10;;
7669;SDS011;3877;42.562;27.636;2023-10-13T03:15:37;8.60;;;3.67;;
7669;SDS011;3877;42.562;27.636;2023-10-13T03:18:04;10.97;;;3.77;;
7669;SDS011;3877;42.562;27.636;2023-10-13T03:20:30;9.60;;;3.33;;
7669;SDS011;3877;42.562;27.636;2023-10-13T03:22:59;9.67;;;3.97;;
7669;SDS011;3877;42.562;27.636;2023-10-13T03:25:25;7.37;;;4.00;;
7669;SDS011;3877;42.562;27.636;2023-10-13T03:28:02;13.43;;;4.40;;
7669;SDS011;3877;42.562;27.636;2023-10-13T03:30:30;11.90;;;4.53;;
7669;SDS011;3877;42.562;27.636;2023-10-13T03:33:03;13.00;;;4.93;;
7669;SDS011;3877;42.562;27.636;2023-10-13T03:35:33;13.70;;;4.80;;
7669;SDS011;3877;42.562;27.636;2023-10-13T03:38:08;8.47;;;4.87;;
7669;SDS011;3877;42.562;27.636;2023-10-13T03:40:43;9.77;;;4.60;;
7669;SDS011;3877;42.562;27.636;2023-10-13T03:43:13;7.73;;;4.70;;
7669;SDS011;3877;42.562;27.636;2023-10-13T03:45:42;10.90;;;4.70;;
7669;SDS011;3877;42.562;27.636;2023-10-13T03:48:09;7.23;;;4.57;;
7669;SDS011;3877;42.562;27.636;2023-10-13T03:50:36;12.00;;;5.50;;
7669;SDS011;3877;42.562;27.636;2023-10-13T03:53:13;13.03;;;5.93;;
7669;SDS011;3877;42.562;27.636;2023-10-13T03:55:40;11.90;;;6.97;;
7669;SDS011;3877;42.562;27.636;2023-10-13T03:58:13;17.47;;;7.77;;
7669;SDS011;3877;42.562;27.636;2023-10-13T04:00:42;13.37;;;7.87;;
7669;SDS011;3877;42.562;27.636;2023-10-13T04:03:08;15.70;;;9.17;;
7669;SDS011;3877;42.562;27.636;2023-10-13T04:05:41;10.10;;;5.70;;
7669;SDS011;3877;42.562;27.636;2023-10-13T04:08:10;10.03;;;4.63;;
7669;SDS011;3877;42.562;27.636;2023-10-13T04:10:57;10.07;;;4.67;;
7669;SDS011;3877;42.562;27.636;2023-10-13T04:13:41;5.73;;;4.23;;
7669;SDS011;3877;42.562;27.636;2023-10-13T04:16:25;13.03;;;4.30;;
7669;SDS011;3877;42.562;27.636;2023-10-13T04:19:03;10.93;;;4.57;;
7669;SDS011;3877;42.562;27.636;2023-10-13T04:21:45;10.00;;;4.73;;
7669;SDS011;3877;42.562;27.636;2023-10-13T04:24:23;11.27;;;5.07;;
7669;SDS011;3877;42.562;27.636;2023-10-13T04:27:06;8.03;;;5.77;;
7669;SDS011;3877;42.562;27.636;2023-10-13T04:29:55;19.57;;;5.90;;
7669;SDS011;3877;42.562;27.636;2023-10-13T04:32:36;7.50;;;4.90;;
7669;SDS011;3877;42.562;27.636;2023-10-13T04:35:04;10.87;;;4.80;;
7669;SDS011;3877;42.562;27.636;2023-10-13T04:37:42;10.33;;;4.97;;
7669;SDS011;3877;42.562;27.636;2023-10-13T04:40:23;9.33;;;4.10;;
7669;SDS011;3877;42.562;27.636;2023-10-13T04:42:51;7.53;;;3.93;;
7669;SDS011;3877;42.562;27.636;2023-10-13T04:45:23;19.00;;;4.37;;
7669;SDS011;3877;42.562;27.636;2023-10-13T04:48:04;8.07;;;3.90;;
7669;SDS011;3877;42.562;27.636;2023-10-13T04:50:44;12.67;;;3.87;;
7669;SDS011;3877;42.562;27.636;2023-10-13T04:53:12;8.73;;;3.60;;
7669;SDS011;3877;42.562;27.636;2023-10-13T04:55:54;6.87;;;3.37;;
7669;SDS011;3877;42.562;27.636;2023-10-13T04:58:55;10.67;;;3.60;;
7669;SDS011;3877;42.562;27.636;2023-10-13T05:01:40;6.80;;;3.40;;
7669;SDS011;3877;42.562;27.636;2023-10-13T05:04:20;8.90;;;3.77;;
7669;SDS011;3877;42.562;27.636;2023-10-13T05:07:02;8.07;;;4.47;;
7669;SDS011;3877;42.562;27.636;2023-10-13T05:09:47;10.83;;;5.00;;
7669;SDS011;3877;42.562;27.636;2023-10-13T05:12:31;15.03;;;4.40;;
7669;SDS011;3877;42.562;27.636;2023-10-13T05:15:16;10.10;;;4.57;;
7669;SDS011;3877;42.562;27.636;2023-10-13T05:18:00;8.73;;;4.40;;
7669;SDS011;3877;42.562;27.636;2023-10-13T05:20:45;11.70;;;5.40;;
7669;SDS011;3877;42.562;27.636;2023-10-13T05:23:29;13.17;;;4.80;;
7669;SDS011;3877;42.562;27.636;2023-10-13T05:26:13;10.70;;;5.57;;
7669;SDS011;3877;42.562;27.636;2023-10-13T05:28:57;11.10;;;5.28;;
7669;SDS011;3877;42.562;27.636;2023-10-13T05:31:43;9.00;;;5.37;;
7669;SDS011;3877;42.562;27.636;2023-10-13T05:34:27;9.27;;;5.70;;
7669;SDS011;3877;42.562;27.636;2023-10-13T05:37:11;10.10;;;4.77;;
7669;SDS011;3877;42.562;27.636;2023-10-13T05:39:52;10.10;;;4.70;;
7669;SDS011;3877;42.562;27.636;2023-10-13T05:42:36;8.17;;;4.03;;
7669;SDS011;3877;42.562;27.636;2023-10-13T05:45:22;11.17;;;4.53;;
7669;SDS011;3877;42.562;27.636;2023-10-13T05:48:04;8.53;;;4.33;;
7669;SDS011;3877;42.562;27.636;2023-10-13T05:50:38;11.73;;;5.18;;
7669;SDS011;3877;42.562;27.636;2023-10-13T05:53:44;6.80;;;4.87;;
7669;SDS011;3877;42.562;27.636;2023-10-13T05:56:28;10.93;;;5.37;;
7669;SDS011;3877;42.562;27.636;2023-10-13T05:59:12;12.70;;;5.87;;
7669;SDS011;3877;42.562;27.636;2023-10-13T06:01:56;8.13;;;4.70;;
7669;SDS011;3877;42.562;27.636;2023-10-13T06:04:41;10.63;;;4.80;;
7669;SDS011;3877;42.562;27.636;2023-10-13T06:07:26;9.27;;;5.15;;
7669;SDS011;3877;42.562;27.636;2023-10-13T06:10:10;10.17;;;5.00;;
7669;SDS011;3877;42.562;27.636;2023-10-13T06:12:54;9.03;;;4.87;;
7669;SDS011;3877;42.562;27.636;2023-10-13T06:15:38;12.10;;;5.95;;
7669;SDS011;3877;42.562;27.636;2023-10-13T06:18:22;10.45;;;5.30;;
7669;SDS011;3877;42.562;27.636;2023-10-13T06:21:08;9.00;;;5.28;;
7669;SDS011;3877;42.562;27.636;2023-10-13T06:23:52;12.02;;;5.53;;
7669;SDS011;3877;42.562;27.636;2023-10-13T06:26:36;8.57;;;5.43;;
7669;SDS011;3877;42.562;27.636;2023-10-13T06:29:20;14.20;;;5.68;;
7669;SDS011;3877;42.562;27.636;2023-10-13T06:31:48;13.60;;;5.87;;
7669;SDS011;3877;42.562;27.636;2023-10-13T06:34:15;13.48;;;5.90;;
7669;SDS011;3877;42.562;27.636;2023-10-13T06:36:48;13.67;;;5.93;;
7669;SDS011;3877;42.562;27.636;2023-10-13T06:39:20;10.77;;;5.68;;
7669;SDS011;3877;42.562;27.636;2023-10-13T06:42:01;11.65;;;6.05;;
7669;SDS011;3877;42.562;27.636;2023-10-13T06:44:29;11.32;;;5.43;;
7669;SDS011;3877;42.562;27.636;2023-10-13T06:46:57;12.30;;;5.53;;
7669;SDS011;3877;42.562;27.636;2023-10-13T06:49:24;11.43;;;5.27;;
7669;SDS011;3877;42.562;27.636;2023-10-13T06:51:55;11.00;;;5.20;;
7669;SDS011;3877;42.562;27.636;2023-10-13T06:54:26;13.05;;;5.35;;
7669;SDS011;3877;42.562;27.636;2023-10-13T06:56:53;13.07;;;5.30;;
7669;SDS011;3877;42.562;27.636;2023-10-13T06:59:21;14.35;;;5.68;;
7669;SDS011;3877;42.562;27.636;2023-10-13T07:01:51;12.02;;;5.90;;
7669;SDS011;3877;42.562;27.636;2023-10-13T07:04:19;12.77;;;6.40;;
7669;SDS011;3877;42.562;27.636;2023-10-13T07:06:47;11.68;;;5.68;;
7669;SDS011;3877;42.562;27.636;2023-10-13T07:09:16;11.10;;;5.17;;
7669;SDS011;3877;42.562;27.636;2023-10-13T07:12:00;10.93;;;4.22;;
7669;SDS011;3877;42.562;27.636;2023-10-13T07:14:28;9.82;;;5.07;;
7669;SDS011;3877;42.562;27.636;2023-10-13T07:17:00;10.93;;;4.75;;
7669;SDS011;3877;42.562;27.636;2023-10-13T07:19:28;12.27;;;4.63;;
7669;SDS011;3877;42.562;27.636;2023-10-13T07:21:55;9.05;;;3.72;;
7669;SDS011;3877;42.562;27.636;2023-10-13T07:24:26;12.50;;;4.55;;
7669;SDS011;3877;42.562;27.636;2023-10-13T07:26:56;10.68;;;4.88;;
7669;SDS011;3877;42.562;27.636;2023-10-13T07:29:28;7.65;;;4.75;;
7669;SDS011;3877;42.562;27.636;2023-10-13T07:31:59;17.08;;;5.68;;
7669;SDS011;3877;42.562;27.636;2023-10-13T07:34:28;17.02;;;5.20;;
7669;SDS011;3877;42.562;27.636;2023-10-13T07:36:57;14.00;;;5.07;;
7669;SDS011;3877;42.562;27.636;2023-10-13T07:39:27;10.15;;;4.78;;
7669;SDS011;3877;42.562;27.636;2023-10-13T07:41:59;12.27;;;4.55;;
7669;SDS011;3877;42.562;27.636;2023-10-13T07:44:31;7.30;;;4.10;;
7669;SDS011;3877;42.562;27.636;2023-10-13T07:46:58;12.00;;;4.15;;
7669;SDS011;3877;42.562;27.636;2023-10-13T07:49:28;12.13;;;4.80;;
7669;SDS011;3877;42.562;27.636;2023-10-13T07:51:57;11.07;;;4.72;;
7669;SDS011;3877;42.562;27.636;2023-10-13T07:54:27;9.45;;;4.32;;
7669;SDS011;3877;42.562;27.636;2023-10-13T07:56:54;10.07;;;4.38;;
7669;SDS011;3877;42.562;27.636;2023-10-13T07:59:21;11.07;;;4.43;;
7669;SDS011;3877;42.562;27.636;2023-10-13T08:01:49;7.72;;;3.88;;
7669;SDS011;3877;42.562;27.636;2023-10-13T08:04:37;12.05;;;4.90;;
7669;SDS011;3877;42.562;27.636;2023-10-13T08:07:04;11.73;;;4.30;;
7669;SDS011;3877;42.562;27.636;2023-10-13T08:09:40;12.07;;;3.97;;
7669;SDS011;3877;42.562;27.636;2023-10-13T08:12:08;10.85;;;3.90;;
7669;SDS011;3877;42.562;27.636;2023-10-13T08:14:37;11.70;;;4.40;;
7669;SDS011;3877;42.562;27.636;2023-10-13T08:17:05;13.02;;;3.80;;
7669;SDS011;3877;42.562;27.636;2023-10-13T08:19:33;7.82;;;4.07;;
7669;SDS011;3877;42.562;27.636;2023-10-13T08:22:09;15.07;;;4.43;;
7669;SDS011;3877;42.562;27.636;2023-10-13T08:24:57;16.17;;;3.90;;
7669;SDS011;3877;42.562;27.636;2023-10-13T08:27:37;10.13;;;3.53;;
7669;SDS011;3877;42.562;27.636;2023-10-13T08:30:14;10.50;;;4.15;;
7669;SDS011;3877;42.562;27.636;2023-10-13T08:32:53;12.35;;;4.25;;
7669;SDS011;3877;42.562;27.636;2023-10-13T08:35:24;13.25;;;4.20;;
7669;SDS011;3877;42.562;27.636;2023-10-13T08:38:01;14.40;;;4.20;;
7669;SDS011;3877;42.562;27.636;2023-10-13T08:40:43;13.05;;;4.13;;
7669;SDS011;3877;42.562;27.636;2023-10-13T08:43:22;10.90;;;4.38;;
7669;SDS011;3877;42.562;27.636;2023-10-13T08:45:50;10.40;;;4.32;;
7669;SDS011;3877;42.562;27.636;2023-10-13T08:48:24;9.75;;;3.80;;
7669;SDS011;3877;42.562;27.636;2023-10-13T08:50:56;10.90;;;3.85;;
7669;SDS011;3877;42.562;27.636;2023-10-13T08:53:31;7.82;;;3.53;;
7669;SDS011;3877;42.562;27.636;2023-10-13T08:56:00;11.98;;;4.10;;
7669;SDS011;3877;42.562;27.636;2023-10-13T08:58:31;10.27;;;4.30;;
7669;SDS011;3877;42.562;27.636;2023-10-13T09:01:12;10.38;;;4.38;;
7669;SDS011;3877;42.562;27.636;2023-10-13T09:03:40;8.68;;;4.10;;
7669;SDS011;3877;42.562;27.636;2023-10-13T09:06:08;9.63;;;3.40;;
7669;SDS011;3877;42.562;27.636;2023-10-13T09:08:40;12.50;;;3.92;;
7669;SDS011;3877;42.562;27.636;2023-10-13T09:11:32;7.97;;;3.55;;
7669;SDS011;3877;42.562;27.636;2023-10-13T09:14:15;11.60;;;3.53;;
7669;SDS011;3877;42.562;27.636;2023-10-13T09:17:01;13.32;;;3.38;;
7669;SDS011;3877;42.562;27.636;2023-10-13T09:19:37;8.43;;;3.90;;
7669;SDS011;3877;42.562;27.636;2023-10-13T09:22:19;9.43;;;4.30;;
7669;SDS011;3877;42.562;27.636;2023-10-13T09:24:50;11.07;;;3.63;;
7669;SDS011;3877;42.562;27.636;2023-10-13T09:27:18;10.75;;;4.70;;
7669;SDS011;3877;42.562;27.636;2023-10-13T09:29:54;14.05;;;3.63;;
7669;SDS011;3877;42.562;27.636;2023-10-13T09:32:20;8.07;;;3.67;;
7669;SDS011;3877;42.562;27.636;2023-10-13T09:34:46;11.70;;;3.58;;
7669;SDS011;3877;42.562;27.636;2023-10-13T09:37:15;8.95;;;3.65;;
7669;SDS011;3877;42.562;27.636;2023-10-13T09:39:46;8.13;;;3.60;;
7669;SDS011;3877;42.562;27.636;2023-10-13T09:42:14;11.07;;;3.63;;
7669;SDS011;3877;42.562;27.636;2023-10-13T09:44:45;13.02;;;4.10;;
7669;SDS011;3877;42.562;27.636;2023-10-13T09:47:17;13.55;;;3.90;;
7669;SDS011;3877;42.562;27.636;2023-10-13T09:49:54;10.88;;;3.65;;
7669;SDS011;3877;42.562;27.636;2023-10-13T09:52:23;13.82;;;3.97;;
7669;SDS011;3877;42.562;27.636;2023-10-13T09:54:54;9.18;;;3.45;;
7669;SDS011;3877;42.562;27.636;2023-10-13T09:57:27;11.52;;;3.80;;
7669;SDS011;3877;42.562;27.636;2023-10-13T10:00:02;18.42;;;3.50;;
7669;SDS011;3877;42.562;27.636;2023-10-13T10:02:32;12.00;;;3.40;;
7669;SDS011;3877;42.562;27.636;2023-10-13T10:05:04;13.88;;;3.30;;
7669;SDS011;3877;42.562;27.636;2023-10-13T10:07:54;15.35;;;3.70;;
7669;SDS011;3877;42.562;27.636;2023-10-13T10:10:21;9.85;;;3.88;;
7669;SDS011;3877;42.562;27.636;2023-10-13T10:12:49;9.13;;;3.70;;
7669;SDS011;3877;42.562;27.636;2023-10-13T10:15:23;13.00;;;3.83;;
7669;SDS011;3877;42.562;27.636;2023-10-13T10:17:56;9.10;;;3.45;;
7669;SDS011;3877;42.562;27.636;2023-10-13T10:20:29;15.07;;;3.67;;
7669;SDS011;3877;42.562;27.636;2023-10-13T10:23:05;14.63;;;3.33;;
7669;SDS011;3877;42.562;27.636;2023-10-13T10:25:37;10.55;;;3.83;;
7669;SDS011;3877;42.562;27.636;2023-10-13T10:28:10;11.10;;;3.38;;
7669;SDS011;3877;42.562;27.636;2023-10-13T10:30:42;13.50;;;3.70;;
7669;SDS011;3877;42.562;27.636;2023-10-13T10:33:10;9.23;;;3.55;;
7669;SDS011;3877;42.562;27.636;2023-10-13T10:35:39;15.02;;;3.60;;
7669;SDS011;3877;42.562;27.636;2023-10-13T10:38:08;10.52;;;3.72;;
7669;SDS011;3877;42.562;27.636;2023-10-13T10:40:49;7.85;;;3.20;;
7669;SDS011;3877;42.562;27.636;2023-10-13T10:43:22;12.20;;;3.25;;
7669;SDS011;3877;42.562;27.636;2023-10-13T10:45:53;10.48;;;3.20;;
7669;SDS011;3877;42.562;27.636;2023-10-13T10:48:25;9.63;;;3.20;;
7669;SDS011;3877;42.562;27.636;2023-10-13T10:50:57;6.43;;;2.90;;
7669;SDS011;3877;42.562;27.636;2023-10-13T10:53:24;14.50;;;3.90;;
7669;SDS011;3877;42.562;27.636;2023-10-13T10:56:04;7.93;;;3.17;;
7669;SDS011;3877;42.562;27.636;2023-10-13T10:58:33;13.25;;;4.03;;
7669;SDS011;3877;42.562;27.636;2023-10-13T11:01:10;8.20;;;3.17;;
7669;SDS011;3877;42.562;27.636;2023-10-13T11:03:52;7.75;;;3.38;;
7669;SDS011;3877;42.562;27.636;2023-10-13T11:06:22;11.43;;;3.13;;
7669;SDS011;3877;42.562;27.636;2023-10-13T11:09:00;7.07;;;3.42;;
7669;SDS011;3877;42.562;27.636;2023-10-13T11:11:29;12.60;;;3.60;;
7669;SDS011;3877;42.562;27.636;2023-10-13T11:13:59;5.95;;;3.50;;
7669;SDS011;3877;42.562;27.636;2023-10-13T11:16:46;11.05;;;3.70;;
7669;SDS011;3877;42.562;27.636;2023-10-13T11:19:16;9.45;;;3.40;;
7669;SDS011;3877;42.562;27.636;2023-10-13T11:21:45;5.72;;;3.33;;
7669;SDS011;3877;42.562;27.636;2023-10-13T11:24:12;7.13;;;3.40;;
7669;SDS011;3877;42.562;27.636;2023-10-13T11:26:39;5.75;;;3.35;;
7669;SDS011;3877;42.562;27.636;2023-10-13T11:29:14;11.85;;;3.72;;
7669;SDS011;3877;42.562;27.636;2023-10-13T11:31:45;10.18;;;2.75;;
7669;SDS011;3877;42.562;27.636;2023-10-13T11:34:16;10.75;;;3.28;;
7669;SDS011;3877;42.562;27.636;2023-10-13T11:36:43;8.80;;;2.70;;
7669;SDS011;3877;42.562;27.636;2023-10-13T11:39:10;8.68;;;2.78;;
7669;SDS011;3877;42.562;27.636;2023-10-13T11:41:43;7.25;;;3.55;;
7669;SDS011;3877;42.562;27.636;2023-10-13T11:44:19;8.30;;;3.65;;
7669;SDS011;3877;42.562;27.636;2023-10-13T11:46:58;8.07;;;2.58;;
7669;SDS011;3877;42.562;27.636;2023-10-13T11:49:53;8.43;;;2.42;;
7669;SDS011;3877;42.562;27.636;2023-10-13T11:52:24;5.07;;;2.22;;
7669;SDS011;3877;42.562;27.636;2023-10-13T11:54:55;10.20;;;2.40;;
7669;SDS011;3877;42.562;27.636;2023-10-13T11:57:22;7.55;;;2.90;;
7669;SDS011;3877;42.562;27.636;2023-10-13T11:59:49;8.55;;;3.17;;
7669;SDS011;3877;42.562;27.636;2023-10-13T12:02:22;5.75;;;2.90;;
7669;SDS011;3877;42.562;27.636;2023-10-13T12:08:31;7.65;;;3.28;;
7669;SDS011;3877;42.562;27.636;2023-10-13T12:11:04;4.05;;;2.85;;
7669;SDS011;3877;42.562;27.636;2023-10-13T12:13:44;9.93;;;3.28;;
7669;SDS011;3877;42.562;27.636;2023-10-13T12:16:11;6.43;;;3.00;;
7669;SDS011;3877;42.562;27.636;2023-10-13T12:18:40;8.18;;;2.80;;
7669;SDS011;3877;42.562;27.636;2023-10-13T12:21:11;8.00;;;3.40;;
7669;SDS011;3877;42.562;27.636;2023-10-13T12:23:44;7.20;;;2.83;;
7669;SDS011;3877;42.562;27.636;2023-10-13T12:26:11;9.80;;;3.10;;
7669;SDS011;3877;42.562;27.636;2023-10-13T12:28:44;9.95;;;3.30;;
7669;SDS011;3877;42.562;27.636;2023-10-13T12:31:16;6.60;;;3.33;;
7669;SDS011;3877;42.562;27.636;2023-10-13T12:33:53;6.47;;;2.80;;
7669;SDS011;3877;42.562;27.636;2023-10-13T12:36:24;6.75;;;2.70;;
7669;SDS011;3877;42.562;27.636;2023-10-13T12:39:06;4.95;;;2.83;;
7669;SDS011;3877;42.562;27.636;2023-10-13T12:41:50;8.85;;;3.03;;
7669;SDS011;3877;42.562;27.636;2023-10-13T12:44:35;8.63;;;3.20;;
7669;SDS011;3877;42.562;27.636;2023-10-13T12:47:19;6.05;;;2.83;;
7669;SDS011;3877;42.562;27.636;2023-10-13T12:50:04;7.65;;;2.95;;
7669;SDS011;3877;42.562;27.636;2023-10-13T12:52:39;7.05;;;2.75;;
7669;SDS011;3877;42.562;27.636;2023-10-13T12:55:11;9.82;;;2.92;;
7669;SDS011;3877;42.562;27.636;2023-10-13T12:57:40;9.80;;;3.10;;
7669;SDS011;3877;42.562;27.636;2023-10-13T13:00:10;7.60;;;2.72;;
7669;SDS011;3877;42.562;27.636;2023-10-13T13:02:46;12.38;;;2.90;;
7669;SDS011;3877;42.562;27.636;2023-10-13T13:05:19;11.73;;;3.08;;
7669;SDS011;3877;42.562;27.636;2023-10-13T13:07:48;10.23;;;4.53;;
7669;SDS011;3877;42.562;27.636;2023-10-13T13:10:19;6.35;;;3.15;;
7669;SDS011;3877;42.562;27.636;2023-10-13T13:12:54;12.02;;;3.05;;
7669;SDS011;3877;42.562;27.636;2023-10-13T13:15:21;10.32;;;2.80;;
7669;SDS011;3877;42.562;27.636;2023-10-13T13:17:48;13.80;;;3.53;;
7669;SDS011;3877;42.562;27.636;2023-10-13T13:20:16;11.98;;;3.15;;
7669;SDS011;3877;42.562;27.636;2023-10-13T13:22:55;11.60;;;3.40;;
7669;SDS011;3877;42.562;27.636;2023-10-13T13:25:29;10.27;;;3.22;;
7669;SDS011;3877;42.562;27.636;2023-10-13T13:27:58;8.32;;;2.95;;
7669;SDS011;3877;42.562;27.636;2023-10-13T13:30:30;5.78;;;3.13;;
7669;SDS011;3877;42.562;27.636;2023-10-13T13:33:00;7.50;;;2.95;;
7669;SDS011;3877;42.562;27.636;2023-10-13T13:35:29;6.90;;;2.50;;
7669;SDS011;3877;42.562;27.636;2023-10-13T13:38:01;9.70;;;3.17;;
7669;SDS011;3877;42.562;27.636;2023-10-13T13:40:36;9.90;;;2.95;;
7669;SDS011;3877;42.562;27.636;2023-10-13T13:43:03;9.80;;;3.05;;
7669;SDS011;3877;42.562;27.636;2023-10-13T13:45:31;10.18;;;3.40;;
7669;SDS011;3877;42.562;27.636;2023-10-13T13:48:07;6.30;;;3.05;;
7669;SDS011;3877;42.562;27.636;2023-10-13T13:50:40;7.68;;;3.30;;
7669;SDS011;3877;42.562;27.636;2023-10-13T13:53:09;9.85;;;2.92;;
7669;SDS011;3877;42.562;27.636;2023-10-13T13:55:37;8.15;;;3.00;;
7669;SDS011;3877;42.562;27.636;2023-10-13T13:58:05;12.15;;;4.13;;
7669;SDS011;3877;42.562;27.636;2023-10-13T14:00:33;7.18;;;2.97;;
7669;SDS011;3877;42.562;27.636;2023-10-13T14:03:04;5.63;;;2.90;;
7669;SDS011;3877;42.562;27.636;2023-10-13T14:05:40;6.57;;;3.20;;
7669;SDS011;3877;42.562;27.636;2023-10-13T14:08:07;9.45;;;2.90;;
7669;SDS011;3877;42.562;27.636;2023-10-13T14:10:38;12.07;;;3.30;;
7669;SDS011;3877;42.562;27.636;2023-10-13T14:13:19;8.43;;;2.90;;
7669;SDS011;3877;42.562;27.636;2023-10-13T14:15:47;9.15;;;2.97;;
7669;SDS011;3877;42.562;27.636;2023-10-13T14:18:22;7.53;;;3.10;;
7669;SDS011;3877;42.562;27.636;2023-10-13T14:20:55;7.80;;;3.28;;
7669;SDS011;3877;42.562;27.636;2023-10-13T14:23:22;5.25;;;3.08;;
7669;SDS011;3877;42.562;27.636;2023-10-13T14:25:52;10.55;;;3.40;;
7669;SDS011;3877;42.562;27.636;2023-10-13T14:28:20;6.15;;;3.38;;
7669;SDS011;3877;42.562;27.636;2023-10-13T14:30:47;7.75;;;3.33;;
7669;SDS011;3877;42.562;27.636;2023-10-13T14:33:14;7.93;;;3.00;;
7669;SDS011;3877;42.562;27.636;2023-10-13T14:35:41;6.20;;;3.05;;
7669;SDS011;3877;42.562;27.636;2023-10-13T14:38:12;10.40;;;3.28;;
7669;SDS011;3877;42.562;27.636;2023-10-13T14:40:39;7.50;;;3.25;;
7669;SDS011;3877;42.562;27.636;2023-10-13T14:43:08;4.50;;;3.25;;
7669;SDS011;3877;42.562;27.636;2023-10-13T14:45:35;15.02;;;3.80;;
7669;SDS011;3877;42.562;27.636;2023-10-13T14:48:02;9.10;;;3.78;;
7669;SDS011;3877;42.562;27.636;2023-10-13T14:50:30;10.27;;;4.00;;
7669;SDS011;3877;42.562;27.636;2023-10-13T14:52:58;15.18;;;3.70;;
7669;SDS011;3877;42.562;27.636;2023-10-13T14:55:25;14.02;;;3.55;;
7669;SDS011;3877;42.562;27.636;2023-10-13T14:58:03;12.35;;;3.60;;
7669;SDS011;3877;42.562;27.636;2023-10-13T15:00:34;6.10;;;3.22;;
7669;SDS011;3877;42.562;27.636;2023-10-13T15:03:01;6.25;;;3.67;;
7669;SDS011;3877;42.562;27.636;2023-10-13T15:05:31;6.80;;;3.05;;
7669;SDS011;3877;42.562;27.636;2023-10-13T15:08:01;6.97;;;3.42;;
7669;SDS011;3877;42.562;27.636;2023-10-13T15:10:29;13.00;;;3.90;;
7669;SDS011;3877;42.562;27.636;2023-10-13T15:12:56;10.00;;;3.88;;
7669;SDS011;3877;42.562;27.636;2023-10-13T15:15:24;11.95;;;4.25;;
7669;SDS011;3877;42.562;27.636;2023-10-13T15:17:53;20.00;;;5.18;;
7669;SDS011;3877;42.562;27.636;2023-10-13T15:20:21;14.98;;;4.22;;
7669;SDS011;3877;42.562;27.636;2023-10-13T15:22:49;14.10;;;3.72;;
7669;SDS011;3877;42.562;27.636;2023-10-13T15:25:25;6.90;;;3.53;;
7669;SDS011;3877;42.562;27.636;2023-10-13T15:27:57;7.38;;;3.38;;
7669;SDS011;3877;42.562;27.636;2023-10-13T15:30:27;6.38;;;3.30;;
7669;SDS011;3877;42.562;27.636;2023-10-13T15:33:11;6.05;;;3.75;;